Jackson, Mississippi
Current Conditions -  °F | °C
As of 12:53 PM on Sunday 23 Nov 2014 (Local Time) from KHKS Reporting Station
Overcast Overcast  
Wind Chill: 19°   Ceiling: 2900
Heat Index: 19°   Visibility: 10mi
Dew Point: 14°   Wind: 14mph
Humidity: 70%   Direction: 210°SSW
Pressure: 29.51"   Gusts: 36mph
Location:  32.3°N, 90.18°W
Report Text: KHKS 231853Z 21012G31KT 10SM BKN029 OVC038 19/14 A2951 RMK AO2 PK WND 20032/1830 SLP985 T01940139
Loading
Personal Weather Stations






























Interactive Weather Map New forecast layout! Learn more

10-Day Weather Forecast

Advertisements
Track Severe Weather on mobile